createdAt,value
2019-04-20T00:05:13.349Z,0
2019-04-20T00:10:52.886Z,0
2019-04-20T00:16:16.911Z,0
2019-04-20T00:21:55.201Z,0
2019-04-20T00:27:42.581Z,0
2019-04-20T00:33:01.674Z,0
2019-04-20T00:38:26.808Z,0
2019-04-20T00:43:57.661Z,0
2019-04-20T00:49:38.645Z,0
2019-04-20T00:54:58.074Z,0
2019-04-20T01:00:45.866Z,10.7
2019-04-20T01:06:21.977Z,11.9
2019-04-20T01:11:37.498Z,10.7
2019-04-20T01:17:11.559Z,10.7
2019-04-20T01:22:44.225Z,10.7
2019-04-20T01:28:27.329Z,5.9
2019-04-20T01:33:52.416Z,0
2019-04-20T01:44:49.085Z,7.2
2019-04-20T01:50:22.467Z,7.2
2019-04-20T01:56:07.018Z,8.4
2019-04-20T02:01:27.114Z,8.4
2019-04-20T02:06:58.561Z,9.6
2019-04-20T02:12:31.049Z,8.4
2019-04-20T02:18:10.691Z,8.4
2019-04-20T02:23:40.607Z,8.4
2019-04-20T02:29:30.350Z,8.4
2019-04-20T02:46:05.780Z,5.9
2019-04-20T02:51:46.471Z,5.9
2019-04-20T02:57:30.295Z,0
2019-04-20T03:02:31.185Z,0
2019-04-20T03:08:02.094Z,0
2019-04-20T03:13:35.543Z,0
2019-04-20T03:19:02.339Z,0
2019-04-20T03:24:48.406Z,0
2019-04-20T03:30:30.331Z,5.9
2019-04-20T03:35:48.850Z,8.4
2019-04-20T03:41:08.048Z,8.4
2019-04-20T03:46:36.377Z,8.4
2019-04-20T03:52:19.067Z,9.6
2019-04-20T03:57:57.023Z,9.6
2019-04-20T04:03:34.526Z,8.4
2019-04-20T04:08:43.607Z,8.4
2019-04-20T04:14:09.643Z,8.4
2019-04-20T04:19:51.048Z,9.6
2019-04-20T04:31:07.735Z,11.9
2019-04-20T04:36:33.738Z,10.7
2019-04-20T04:47:22.387Z,8.4
2019-04-20T04:53:02.276Z,7.2
2019-04-20T04:58:27.735Z,7.2
2019-04-20T05:04:19.926Z,9.6
2019-04-20T05:09:31.775Z,8.4
2019-04-20T05:15:09.960Z,9.6
2019-04-20T05:20:58.305Z,9.6
2019-04-20T05:26:29.772Z,9.6
2019-04-20T05:31:47.050Z,9.6
2019-04-20T05:37:52.831Z,8.4
2019-04-20T05:43:05.624Z,9.6
2019-04-20T05:48:38.055Z,8.4
2019-04-20T05:54:13.385Z,9.6
2019-04-20T05:59:50.759Z,8.4
2019-04-20T06:05:15.863Z,9.6
2019-04-20T06:10:49.261Z,9.6
2019-04-20T06:16:17.780Z,8.4
2019-04-20T06:21:57.235Z,8.4
2019-04-20T07:06:33.725Z,8.4
2019-04-20T07:28:38.018Z,7.2
2019-04-20T07:34:03.499Z,8.4
2019-04-20T07:39:40.005Z,8.4
2019-04-20T07:45:20.966Z,9.6
2019-04-20T07:50:40.286Z,8.4
2019-04-20T08:02:00.397Z,10.7
2019-04-20T08:07:12.085Z,13.2
2019-04-20T08:13:09.092Z,14.4
2019-04-20T08:18:39.818Z,15.6
2019-04-20T08:24:06.736Z,15.6
2019-04-20T08:29:37.734Z,18
2019-04-20T08:40:53.093Z,18
2019-04-20T08:46:31.946Z,18
2019-04-20T08:52:11.219Z,18
2019-04-20T08:57:17.826Z,19.2
2019-04-20T09:02:55.422Z,16.8
2019-04-20T09:08:30.732Z,19.2
2019-04-20T09:14:02.462Z,15.6
2019-04-20T09:19:44.708Z,18
2019-04-20T09:30:53.035Z,16.8
2019-04-20T09:36:32.270Z,18
2019-04-20T09:42:00.302Z,19.2
2019-04-20T09:47:34.282Z,15.6
2019-04-20T09:53:13.727Z,16.8
2019-04-20T09:58:54.473Z,18
2019-04-20T10:04:11.027Z,19.2
2019-04-20T10:09:46.610Z,20.4
2019-04-20T10:15:22.998Z,20.4
2019-04-20T10:20:54.053Z,20.4
2019-04-20T10:26:28.711Z,21.5
2019-04-20T10:32:07.694Z,16.8
2019-04-20T10:37:39.440Z,16.8
2019-04-20T10:43:14.185Z,16.8
2019-04-20T10:48:50.884Z,13.2
2019-04-20T10:54:22.734Z,21.5
2019-04-20T10:59:57.637Z,15.6
2019-04-20T11:05:32.833Z,15.6
2019-04-20T11:11:14.397Z,19.2
2019-04-20T11:16:42.642Z,15.6
2019-04-20T11:22:17.751Z,15.6
2019-04-20T11:27:54.246Z,14.4
2019-04-20T11:33:28.216Z,16.8
2019-04-20T11:39:03.741Z,15.6
2019-04-20T11:44:38.852Z,16.8
2019-04-20T11:50:15.521Z,19.2
2019-04-20T11:55:49.468Z,20.4
2019-04-20T12:01:27.789Z,22.8
2019-04-20T12:07:01.217Z,20.4
2019-04-20T12:12:41.879Z,19.2
2019-04-20T12:18:11.651Z,22.8
2019-04-20T12:23:46.789Z,22.8
2019-04-20T12:29:23.659Z,23.9
2019-04-20T12:34:58.187Z,22.8
2019-04-20T12:40:34.136Z,22.8
2019-04-20T12:51:52.502Z,22.8
2019-04-20T12:57:20.725Z,22.8
2019-04-20T13:02:56.150Z,23.9
2019-04-20T13:08:36.551Z,22.8
2019-04-20T13:14:08.294Z,21.5
2019-04-20T13:19:43.449Z,23.9
2019-04-20T13:25:19.313Z,19.2
2019-04-20T13:30:55.563Z,21.5
2019-04-20T13:36:32.480Z,18
2019-04-20T13:42:13.757Z,21.5
2019-04-20T13:47:43.268Z,22.8
2019-04-20T13:53:19.291Z,16.8
2019-04-20T13:58:59.779Z,18
2019-04-20T14:04:36.869Z,25.1
2019-04-20T14:10:13.358Z,20.4
2019-04-20T14:15:49.197Z,19.2
2019-04-20T14:21:24.435Z,23.9
2019-04-20T14:27:01.149Z,20.4
2019-04-20T14:32:36.895Z,19.2
2019-04-20T14:38:13.154Z,28.8
2019-04-20T14:43:49.033Z,19.2
2019-04-20T14:49:25.263Z,18
2019-04-20T14:55:01.778Z,19.2
2019-04-20T15:02:59.476Z,25.1
2019-04-20T15:08:36.620Z,20.4
2019-04-20T15:14:10.903Z,27.6
2019-04-20T15:19:45.429Z,26.4
2019-04-20T15:25:18.968Z,22.8
2019-04-20T15:30:54.136Z,23.9
2019-04-20T15:36:28.433Z,21.5
2019-04-20T15:42:03.322Z,26.4
2019-04-20T15:47:36.514Z,23.9
2019-04-20T15:58:46.431Z,21.5
2019-04-20T16:09:56.850Z,22.8
2019-04-20T16:54:43.848Z,16.8
2019-04-20T17:45:12.046Z,10.7
2019-04-20T17:51:04.190Z,10.7
2019-04-20T17:56:15.199Z,10.7
2019-04-20T18:02:00.825Z,11.9
2019-04-20T18:07:56.209Z,10.7
2019-04-20T18:12:57.517Z,16.8
2019-04-20T18:18:43.763Z,10.7
2019-04-20T18:24:05.115Z,14.4
2019-04-20T18:29:56.399Z,13.2
2019-04-20T18:35:12.133Z,11.9
2019-04-20T18:40:53.281Z,10.7
2019-04-20T18:46:36.899Z,9.6
2019-04-20T18:51:53.564Z,8.4
2019-04-20T18:57:29.133Z,9.6
2019-04-20T19:03:09.164Z,7.2
2019-04-20T19:08:38.047Z,0
2019-04-20T19:14:12.863Z,0
2019-04-20T19:19:41.271Z,0
2019-04-20T19:25:09.810Z,7.2
2019-04-20T19:30:49.904Z,3.6
2019-04-20T19:36:26.230Z,0
2019-04-20T19:41:55.452Z,7.2
2019-04-20T19:53:21.005Z,8.4
2019-04-20T20:04:04.486Z,0
2019-04-20T20:09:38.400Z,0
2019-04-20T20:15:12.673Z,0
2019-04-20T20:20:55.172Z,0
2019-04-20T20:26:19.535Z,0
2019-04-20T20:31:57.617Z,0
2019-04-20T20:37:25.209Z,0
2019-04-20T20:43:01.021Z,0
2019-04-20T20:48:34.680Z,0
2019-04-20T20:54:02.095Z,0
2019-04-20T20:59:34.394Z,0
2019-04-20T21:04:55.713Z,0
2019-04-20T21:10:31.820Z,0
2019-04-20T21:16:05.165Z,0
2019-04-20T21:21:44.004Z,0
2019-04-20T21:27:07.539Z,0
2019-04-20T21:32:42.104Z,0
2019-04-20T21:38:10.201Z,0
2019-04-20T21:43:42.558Z,0
2019-04-20T21:49:26.106Z,0
2019-04-20T21:54:43.752Z,0
2019-04-20T22:00:24.840Z,0
2019-04-20T22:05:48.457Z,0
2019-04-20T22:11:20.001Z,0
2019-04-20T22:16:54.842Z,0
2019-04-20T22:22:42.169Z,0
2019-04-20T22:27:58.272Z,0
2019-04-20T22:33:31.673Z,0
2019-04-20T22:39:00.200Z,0
2019-04-20T22:44:33.923Z,0
2019-04-20T22:50:18.617Z,0
2019-04-20T22:55:54.684Z,0
2019-04-20T23:01:19.149Z,0
2019-04-20T23:06:43.935Z,0
2019-04-20T23:12:15.612Z,0
2019-04-20T23:17:45.699Z,0
2019-04-20T23:23:16.857Z,7.2
2019-04-20T23:28:51.795Z,9.6
2019-04-20T23:34:23.550Z,9.6
2019-04-20T23:39:54.718Z,9.6
2019-04-20T23:45:31.168Z,10.7
2019-04-20T23:51:14.537Z,10.7
2019-04-20T23:56:32.123Z,9.6
